Vremea acum in Chișineu Criș - Romania

Vrei sa afli care e starea vremii acum in Arad - Romania? Dorim sa iti furnizam starea vremii pentru Arad - Romania. Starea vremii Arad - Romania pentru astazi.

Vremea acum in Chișineu Criș

Temperatura: 10.3 °C

Este: Senin
Se simte ca: 9.6 °C
Innorat: 0 %
Precipitatii: 0 %
Presiune atmosferica: 1016 hPa
Umiditate: 66%
Vizibilitate: 10 km
Vantul bate din S cu 6.8 km/h

Evolutia vremii in Chișineu Criș pe ore

Ora: 03:00
Senin
Temperatura: 11.9°C
Sansa de precipitatii: 0%
Ora Descriere Temp Se simte Precipitatii Umiditate Vant
00:00Senin13.8°13.8°0%56%S 6.1 KM/H
01:00Senin13.1°12.8°0%59%S 7.2 KM/H
02:00Senin10.3°12.1°0%66%S 6.8 KM/H
03:00Senin11.9°11.3°0%64%SSE 7.6 KM/H
04:00Senin11.5°10.5°0%67%SE 9 KM/H
05:00Senin11.1°10.1°0%70%SE 9 KM/H
06:00Senin10.6°9.8°0%73%SE 7.9 KM/H
07:00Senin11°10.2°0%76%SSE 7.6 KM/H
08:00Senin13.6°13.4°0%71%SSE 7.2 KM/H
09:00Senin16.5°16.5°0%62%SSE 8.6 KM/H
10:00Senin18.8°18.8°0%56%SSE 9.7 KM/H
11:00Senin20.7°20.8°0%51%S 10.8 KM/H
12:00Senin22.2°24.4°0%47%S 11.9 KM/H
13:00Senin23.3°24.5°0%40%SSW 13.3 KM/H
14:00Senin24.1°24.6°0%35%SSW 15.1 KM/H
15:00Senin24.5°24.7°0%34%SSW 15.8 KM/H
16:00Senin24.7°24.8°0%34%SSW 15.8 KM/H
17:00Senin24.7°24.8°0%33%SSW 15.5 KM/H
18:00Senin24.4°25°0%39%SSW 13 KM/H
19:00Senin23°24.7°0%48%S 9.7 KM/H
20:00Senin19.8°19.8°0%54%S 10.4 KM/H
21:00Senin17.4°17.4°0%53%SSE 10.4 KM/H
22:00Senin16.5°16.5°0%53%SSE 10.4 KM/H
23:00Senin15.8°15.8°0%54%SSE 11.5 KM/H




tutorials